createdAt,value
2023-05-06T00:01:43.889Z,100026.50
2023-05-06T00:04:11.632Z,100024.13
2023-05-06T00:06:39.071Z,100027.75
2023-05-06T00:09:06.513Z,100027.69
2023-05-06T00:11:34.221Z,100024.22
2023-05-06T00:14:01.602Z,100024.22
2023-05-06T00:16:29.008Z,100026.00
2023-05-06T00:18:56.717Z,100025.88
2023-05-06T00:21:24.084Z,100021.38
2023-05-06T00:23:51.511Z,100031.88
2023-05-06T00:26:19.161Z,100030.41
2023-05-06T00:28:46.571Z,100032.78
2023-05-06T00:31:14.059Z,100026.69
2023-05-06T00:33:41.839Z,100030.25
2023-05-06T00:36:09.262Z,100034.78
2023-05-06T00:38:36.637Z,100026.78
2023-05-06T00:41:04.523Z,100032.03
2023-05-06T00:43:31.871Z,100022.50
2023-05-06T00:45:59.382Z,100028.50
2023-05-06T00:48:27.398Z,100030.47
2023-05-06T00:50:54.924Z,100026.87
2023-05-06T00:53:22.396Z,100030.63
2023-05-06T00:55:51.249Z,100024.47
2023-05-06T00:58:20.219Z,100013.97
2023-05-06T01:00:47.686Z,100015.84
2023-05-06T01:03:15.897Z,100018.44
2023-05-06T01:05:53.622Z,100016.72
2023-05-06T01:08:36.038Z,100014.91
2023-05-06T01:11:26.565Z,100011.28
2023-05-06T01:14:35.768Z,100016.81
2023-05-06T01:17:06.402Z,100012.44
2023-05-06T01:19:43.340Z,100007.19
2023-05-06T01:22:11.727Z,100007.97
2023-05-06T01:24:44.008Z,100014.31
2023-05-06T01:27:13.266Z,100013.31
2023-05-06T01:29:42.598Z,100009.06
2023-05-06T01:32:34.746Z,100011.66
2023-05-06T01:35:33.270Z,100007.28
2023-05-06T01:38:17.752Z,99996.91
2023-05-06T01:40:49.023Z,99996.78
2023-05-06T01:43:17.098Z,99998.78
2023-05-06T01:45:49.663Z,99995.25
2023-05-06T01:48:16.959Z,99997.06
2023-05-06T01:50:44.759Z,100004.13
2023-05-06T01:53:12.242Z,99994.66
2023-05-06T01:55:39.628Z,100004.22
2023-05-06T01:58:07.296Z,100005.12
2023-05-06T02:00:34.956Z,100006.16
2023-05-06T02:03:02.752Z,100007.06
2023-05-06T02:05:30.835Z,100015.06
2023-05-06T02:07:58.535Z,100015.00
2023-05-06T02:10:26.286Z,100014.09
2023-05-06T02:12:55.122Z,100010.72
2023-05-06T02:15:23.370Z,100008.84
2023-05-06T02:17:51.088Z,100010.69
2023-05-06T02:20:18.469Z,100007.16
2023-05-06T02:22:45.904Z,100004.59
2023-05-06T02:25:13.622Z,100003.72
2023-05-06T02:27:41.053Z,100014.31
2023-05-06T02:30:08.744Z,100015.19
2023-05-06T02:32:36.582Z,100010.97
2023-05-06T02:35:04.301Z,100021.38
2023-05-06T02:37:31.786Z,100017.06
2023-05-06T02:40:00.795Z,100016.19
2023-05-06T02:42:28.220Z,100010.03
2023-05-06T02:44:55.673Z,100014.59
2023-05-06T02:47:24.652Z,100014.50
2023-05-06T02:49:52.071Z,100008.50
2023-05-06T02:52:19.455Z,100010.25
2023-05-06T02:54:47.203Z,100025.09
2023-05-06T02:57:14.649Z,100018.09
2023-05-06T02:59:42.107Z,100016.56
2023-05-06T03:02:09.754Z,100027.81
2023-05-06T03:04:37.226Z,100014.00
2023-05-06T03:07:04.686Z,100014.88
2023-05-06T03:09:32.644Z,100017.56
2023-05-06T03:12:00.577Z,100013.19
2023-05-06T03:14:28.268Z,100014.13
2023-05-06T03:16:56.240Z,100021.06
2023-05-06T03:19:23.739Z,100028.91
2023-05-06T03:21:51.184Z,100018.41
2023-05-06T03:24:19.965Z,100013.22
2023-05-06T03:26:47.568Z,100015.84
2023-05-06T03:29:15.016Z,100012.31
2023-05-06T03:31:43.082Z,100008.84
2023-05-06T03:34:11.585Z,100009.72
2023-05-06T03:36:39.080Z,99997.56
2023-05-06T03:39:06.901Z,99996.59
2023-05-06T03:41:34.708Z,100007.91
2023-05-06T03:44:02.702Z,100004.59
2023-05-06T03:46:31.177Z,100007.31
2023-05-06T03:49:00.677Z,100010.63
2023-05-06T03:51:28.735Z,100007.13
2023-05-06T03:53:57.027Z,100015.84
2023-05-06T03:56:25.000Z,100019.41
2023-05-06T03:58:54.585Z,100020.19
2023-05-06T04:01:23.685Z,100028.03
2023-05-06T04:03:52.270Z,100029.75
2023-05-06T04:06:19.854Z,100030.63
2023-05-06T04:08:47.740Z,100030.63
2023-05-06T04:11:15.615Z,100026.13
2023-05-06T04:13:43.023Z,100030.44
2023-05-06T04:16:10.772Z,100025.12
2023-05-06T04:18:39.731Z,100025.91
2023-05-06T04:21:07.357Z,100025.00
2023-05-06T04:23:35.210Z,100028.50
2023-05-06T04:26:02.951Z,100034.59
2023-05-06T04:28:31.089Z,100033.59
2023-05-06T04:30:59.038Z,100025.66
2023-05-06T04:33:29.308Z,100023.09
2023-05-06T04:35:57.223Z,100034.31
2023-05-06T04:38:27.123Z,100039.47
2023-05-06T04:40:55.508Z,100030.56
2023-05-06T04:43:23.103Z,100041.88
2023-05-06T04:45:52.885Z,100028.78
2023-05-06T04:48:22.384Z,100035.06
2023-05-06T04:50:50.981Z,100039.97
2023-05-06T04:53:18.653Z,100042.59
2023-05-06T04:55:47.241Z,100041.34
2023-05-06T04:58:15.750Z,100047.50
2023-05-06T05:00:43.595Z,100050.06
2023-05-06T05:03:11.558Z,100054.34
2023-05-06T05:05:39.171Z,100054.19
2023-05-06T05:08:07.990Z,100053.22
2023-05-06T05:10:36.170Z,100059.25
2023-05-06T05:13:03.938Z,100049.47
2023-05-06T05:15:31.421Z,100047.78
2023-05-06T05:17:59.206Z,100047.66
2023-05-06T05:20:27.118Z,100053.53
2023-05-06T05:22:54.948Z,100051.72
2023-05-06T05:25:23.083Z,100054.13
2023-05-06T05:27:50.639Z,100049.56
2023-05-06T05:30:18.696Z,100047.53
2023-05-06T05:32:46.711Z,100039.53
2023-05-06T05:35:14.420Z,100044.63
2023-05-06T05:37:42.671Z,100044.47
2023-05-06T05:40:11.023Z,100048.75
2023-05-06T05:42:40.159Z,100048.38
2023-05-06T05:45:09.143Z,100052.50
2023-05-06T05:47:37.432Z,100047.00
2023-05-06T05:50:06.286Z,100041.94
2023-05-06T05:52:33.694Z,100036.28
2023-05-06T05:55:01.736Z,100035.66
2023-05-06T05:57:29.144Z,100035.78
2023-05-06T05:59:56.593Z,100039.72
2023-05-06T06:02:24.432Z,100050.44
2023-05-06T06:04:52.848Z,100042.38
2023-05-06T06:07:20.422Z,100039.53
2023-05-06T06:09:48.908Z,100035.53
2023-05-06T06:12:18.022Z,100028.00
2023-05-06T06:14:48.066Z,100027.19
2023-05-06T06:17:16.723Z,100030.94
2023-05-06T06:19:47.534Z,100036.47
2023-05-06T06:22:15.003Z,100031.13
2023-05-06T06:24:43.155Z,100032.59
2023-05-06T06:27:11.603Z,100029.97
2023-05-06T06:29:39.329Z,100029.63
2023-05-06T06:32:07.914Z,100029.81
2023-05-06T06:34:35.663Z,100020.97
2023-05-06T06:37:03.395Z,100024.31
2023-05-06T06:39:30.784Z,100029.09
2023-05-06T06:41:58.585Z,100024.16
2023-05-06T06:44:26.078Z,100026.25
2023-05-06T06:46:53.525Z,100024.88
2023-05-06T06:49:21.247Z,100016.25
2023-05-06T06:51:48.646Z,100018.91
2023-05-06T06:54:16.039Z,100015.06
2023-05-06T06:56:43.717Z,100016.22
2023-05-06T06:59:11.061Z,100011.59
2023-05-06T07:01:38.455Z,100014.84
2023-05-06T07:04:07.372Z,100016.72
2023-05-06T07:06:34.879Z,100021.09
2023-05-06T07:09:02.402Z,100019.87
2023-05-06T07:11:30.108Z,100017.59
2023-05-06T07:13:57.631Z,100018.94
2023-05-06T07:16:25.396Z,100015.56
2023-05-06T07:18:53.835Z,100015.19
2023-05-06T07:21:21.253Z,100021.25
2023-05-06T07:23:48.967Z,100011.91
2023-05-06T07:26:16.664Z,100012.38
2023-05-06T07:28:44.154Z,100016.53
2023-05-06T07:31:11.592Z,100024.66
2023-05-06T07:33:39.325Z,100025.31
2023-05-06T07:36:07.068Z,100016.37
2023-05-06T07:38:34.440Z,100012.22
2023-05-06T07:41:02.144Z,100017.34
2023-05-06T07:43:29.872Z,100014.41
2023-05-06T07:46:02.616Z,100017.25
2023-05-06T07:48:30.555Z,100012.00
2023-05-06T07:50:58.405Z,100014.09
2023-05-06T07:53:26.289Z,100008.97
2023-05-06T07:55:56.065Z,100004.22
2023-05-06T07:58:23.448Z,100010.22
2023-05-06T08:00:50.898Z,100004.53
2023-05-06T08:03:18.651Z,100011.13
2023-05-06T08:05:46.227Z,100015.44
2023-05-06T08:08:13.635Z,100016.06
2023-05-06T08:10:41.375Z,100013.22
2023-05-06T08:13:08.754Z,100014.47
2023-05-06T08:15:36.551Z,100021.09
2023-05-06T08:18:21.035Z,100021.09
2023-05-06T08:20:51.243Z,100017.75
2023-05-06T08:23:18.957Z,100023.31
2023-05-06T08:25:46.610Z,100022.03
2023-05-06T08:28:14.177Z,100021.84
2023-05-06T08:30:42.039Z,100019.53
2023-05-06T08:33:09.480Z,100017.47
2023-05-06T08:35:36.980Z,100021.78
2023-05-06T08:38:04.699Z,100022.31
2023-05-06T08:40:33.607Z,100017.09
2023-05-06T08:43:03.505Z,100012.94
2023-05-06T08:45:32.987Z,100010.00
2023-05-06T08:48:00.636Z,100017.00
2023-05-06T08:50:28.382Z,100008.72
2023-05-06T08:52:56.064Z,100001.12
2023-05-06T08:55:24.345Z,100007.78
2023-05-06T08:57:53.042Z,100007.97
2023-05-06T09:00:20.729Z,100009.16
2023-05-06T09:02:48.313Z,100009.31
2023-05-06T09:05:16.371Z,100007.34
2023-05-06T09:07:44.090Z,100004.00
2023-05-06T09:10:13.084Z,100003.81
2023-05-06T09:12:40.663Z,100003.09
2023-05-06T09:15:09.634Z,100005.44
2023-05-06T09:17:37.216Z,99999.94
2023-05-06T09:20:08.266Z,99996.91
2023-05-06T09:22:38.631Z,99994.41
2023-05-06T09:25:06.738Z,99991.44
2023-05-06T09:27:35.115Z,99993.25
2023-05-06T09:30:05.746Z,99991.16
2023-05-06T09:32:36.726Z,99982.31
2023-05-06T09:35:06.118Z,99984.69
2023-05-06T09:37:33.432Z,99983.63
2023-05-06T09:40:01.273Z,99982.78
2023-05-06T09:42:30.933Z,99983.69
2023-05-06T09:45:02.000Z,99980.38
2023-05-06T09:47:35.736Z,99973.41
2023-05-06T09:50:04.030Z,99971.44
2023-05-06T09:52:32.949Z,99967.62
2023-05-06T09:55:01.571Z,99964.44
2023-05-06T09:57:31.314Z,99956.75
2023-05-06T10:00:00.588Z,99952.47
2023-05-06T10:02:28.672Z,99954.53
2023-05-06T10:04:57.464Z,99951.56
2023-05-06T10:07:28.716Z,99947.81
2023-05-06T10:09:58.626Z,99947.56
2023-05-06T10:12:26.432Z,99945.81
2023-05-06T10:14:53.857Z,99947.34
2023-05-06T10:17:24.816Z,99952.69
2023-05-06T10:19:55.932Z,99945.50
2023-05-06T10:22:51.888Z,99939.16
2023-05-06T10:25:38.553Z,99935.38
2023-05-06T10:28:10.095Z,99929.22
2023-05-06T10:30:44.348Z,99933.59
2023-05-06T10:33:12.640Z,99924.37
2023-05-06T10:35:57.146Z,99923.25
2023-05-06T10:38:28.497Z,99919.78
2023-05-06T10:40:56.491Z,99920.44
2023-05-06T10:43:25.371Z,99911.84
2023-05-06T10:46:21.118Z,99914.50
2023-05-06T10:49:08.560Z,99911.03
2023-05-06T10:51:37.066Z,99909.41
2023-05-06T10:54:09.015Z,99894.00
2023-05-06T10:56:38.416Z,99904.06
2023-05-06T10:59:07.913Z,99899.81
2023-05-06T11:01:42.995Z,99900.47
2023-05-06T11:04:15.558Z,99905.16
2023-05-06T11:06:48.750Z,99900.47
2023-05-06T11:09:27.532Z,99896.75
2023-05-06T11:12:03.081Z,99895.94
2023-05-06T11:14:35.683Z,99898.84
2023-05-06T11:17:29.411Z,99895.94
2023-05-06T11:20:19.146Z,99894.78
2023-05-06T11:22:46.617Z,99887.06
2023-05-06T11:25:14.457Z,99884.44
2023-05-06T11:27:41.911Z,99888.06
2023-05-06T11:30:14.840Z,99894.16
2023-05-06T11:32:43.007Z,99890.28
2023-05-06T11:35:11.799Z,99887.63
2023-05-06T11:37:39.285Z,99886.87
2023-05-06T11:40:14.551Z,99886.41
2023-05-06T11:42:42.097Z,99897.97
2023-05-06T11:45:11.614Z,99898.00
2023-05-06T11:47:43.532Z,99892.91
2023-05-06T11:50:11.534Z,99906.03
2023-05-06T11:52:40.153Z,99905.84
2023-05-06T11:55:09.953Z,99904.03
2023-05-06T11:57:44.629Z,99899.66
2023-05-06T12:00:13.208Z,99911.00
2023-05-06T12:02:41.154Z,99902.78
2023-05-06T12:05:09.480Z,99902.97
2023-05-06T12:07:37.245Z,99908.59
2023-05-06T12:10:05.112Z,99900.06
2023-05-06T12:15:00.893Z,99906.59
2023-05-06T12:17:28.321Z,99900.53
2023-05-06T12:19:56.202Z,99905.00
2023-05-06T12:22:26.784Z,99901.00
2023-05-06T12:24:54.319Z,99895.94
2023-05-06T12:27:29.472Z,99893.94
2023-05-06T12:29:56.896Z,99893.22
2023-05-06T12:32:24.565Z,99888.25
2023-05-06T12:34:52.050Z,99888.38
2023-05-06T12:37:28.764Z,99895.13
2023-05-06T12:39:59.066Z,99883.59
2023-05-06T12:42:27.458Z,99892.34
2023-05-06T12:44:55.042Z,99883.72
2023-05-06T12:47:24.875Z,99889.50
2023-05-06T12:49:54.707Z,99886.91
2023-05-06T12:52:23.594Z,99884.50
2023-05-06T12:54:52.721Z,99880.56
2023-05-06T12:57:20.800Z,99887.56
2023-05-06T12:59:48.617Z,99887.09
2023-05-06T13:02:16.464Z,99886.31
2023-05-06T13:04:45.257Z,99890.81
2023-05-06T13:07:12.765Z,99885.69
2023-05-06T13:09:40.554Z,99883.47
2023-05-06T13:12:08.304Z,99880.53
2023-05-06T13:14:37.819Z,99882.38
2023-05-06T13:17:07.737Z,99881.78
2023-05-06T13:19:35.179Z,99878.50
2023-05-06T13:22:02.807Z,99871.13
2023-05-06T13:24:30.861Z,99874.56
2023-05-06T13:27:00.860Z,99874.66
2023-05-06T13:29:29.945Z,99886.03
2023-05-06T13:31:57.860Z,99889.50
2023-05-06T13:34:25.974Z,99886.84
2023-05-06T13:36:54.712Z,99892.34
2023-05-06T13:39:22.789Z,99885.97
2023-05-06T13:41:50.313Z,99891.84
2023-05-06T13:44:18.662Z,99901.66
2023-05-06T13:46:46.879Z,99896.78
2023-05-06T13:49:14.707Z,99902.25
2023-05-06T13:51:42.086Z,99896.81
2023-05-06T13:54:10.139Z,99904.41
2023-05-06T13:56:37.609Z,99901.03
2023-05-06T13:59:05.007Z,99901.66
2023-05-06T14:01:32.740Z,99896.72
2023-05-06T14:04:00.452Z,99900.06
2023-05-06T14:06:27.880Z,99906.97
2023-05-06T14:08:55.776Z,99905.84
2023-05-06T14:11:23.498Z,99902.91
2023-05-06T14:13:50.963Z,99899.25
2023-05-06T14:16:18.632Z,99890.31
2023-05-06T14:18:46.406Z,99897.25
2023-05-06T14:21:13.882Z,99890.12
2023-05-06T14:23:41.487Z,99881.75
2023-05-06T14:26:09.179Z,99881.06
2023-05-06T14:28:36.635Z,99877.63
2023-05-06T14:31:04.152Z,99868.03
2023-05-06T14:33:31.866Z,99872.03
2023-05-06T14:36:00.089Z,99867.16
2023-05-06T14:38:27.458Z,99865.50
2023-05-06T14:40:55.502Z,99859.81
2023-05-06T14:43:23.688Z,99858.31
2023-05-06T14:45:51.119Z,99856.63
2023-05-06T14:48:18.875Z,99849.44
2023-05-06T14:50:46.225Z,99864.84
2023-05-06T14:53:13.651Z,99868.28
2023-05-06T14:55:41.454Z,99865.84
2023-05-06T14:58:08.887Z,99861.38
2023-05-06T15:00:36.305Z,99856.03
2023-05-06T15:03:04.666Z,99862.78
2023-05-06T15:05:32.174Z,99862.97
2023-05-06T15:07:59.582Z,99861.09
2023-05-06T15:10:27.270Z,99851.25
2023-05-06T15:12:54.694Z,99850.72
2023-05-06T15:15:22.119Z,99849.47
2023-05-06T15:17:52.372Z,99850.72
2023-05-06T15:20:19.823Z,99856.34
2023-05-06T15:22:47.465Z,99848.09
2023-05-06T15:25:26.235Z,99851.47
2023-05-06T15:28:01.368Z,99853.91
2023-05-06T15:30:29.025Z,99853.97
2023-05-06T15:32:56.527Z,99841.63
2023-05-06T15:35:23.947Z,99842.41
2023-05-06T15:37:55.457Z,99844.03
2023-05-06T15:40:25.478Z,99837.16
2023-05-06T15:42:53.214Z,99841.75
2023-05-06T15:45:21.039Z,99835.66
2023-05-06T15:47:48.631Z,99831.06
2023-05-06T15:50:31.780Z,99831.34
2023-05-06T15:53:02.102Z,99836.22
2023-05-06T15:55:30.206Z,99830.72
2023-05-06T16:00:28.158Z,99834.50
2023-05-06T16:02:55.969Z,99838.41
2023-05-06T16:05:23.497Z,99844.56
2023-05-06T16:07:50.910Z,99833.41
2023-05-06T16:10:18.590Z,99835.16
2023-05-06T16:12:46.033Z,99832.16
2023-05-06T16:15:13.498Z,99825.66
2023-05-06T16:17:41.336Z,99827.25
2023-05-06T16:20:10.502Z,99831.13
2023-05-06T16:22:41.741Z,99824.81
2023-05-06T16:25:09.881Z,99825.03
2023-05-06T16:27:37.247Z,99831.22
2023-05-06T16:30:05.053Z,99832.47
2023-05-06T16:32:32.725Z,99834.34
2023-05-06T16:35:00.165Z,99834.50
2023-05-06T16:37:29.076Z,99837.62
2023-05-06T16:39:56.806Z,99836.22
2023-05-06T16:42:24.589Z,99840.41
2023-05-06T16:44:52.305Z,99838.84
2023-05-06T16:47:23.508Z,99840.87
2023-05-06T16:49:51.104Z,99845.19
2023-05-06T16:52:19.246Z,99847.19
2023-05-06T16:54:46.888Z,99855.66
2023-05-06T16:57:14.319Z,99839.06
2023-05-06T16:59:41.740Z,99851.53
2023-05-06T17:02:09.437Z,99845.16
2023-05-06T17:04:37.555Z,99850.22
2023-05-06T17:07:04.961Z,99846.78
2023-05-06T17:09:32.758Z,99842.63
2023-05-06T17:12:00.160Z,99842.50
2023-05-06T17:14:28.129Z,99838.19
2023-05-06T17:16:56.252Z,99837.09
2023-05-06T17:19:23.790Z,99836.31
2023-05-06T17:21:51.225Z,99829.47
2023-05-06T17:24:18.932Z,99828.75
2023-05-06T17:26:46.629Z,99831.47
2023-05-06T17:29:14.111Z,99838.75
2023-05-06T17:31:41.885Z,99838.94
2023-05-06T17:34:09.249Z,99837.88
2023-05-06T17:36:37.016Z,99834.78
2023-05-06T17:39:05.263Z,99828.53
2023-05-06T17:41:33.530Z,99829.31
2023-05-06T17:44:01.214Z,99825.87
2023-05-06T17:46:28.945Z,99827.28
2023-05-06T17:48:56.361Z,99834.22
2023-05-06T17:51:24.079Z,99837.06
2023-05-06T17:53:51.901Z,99832.91
2023-05-06T17:56:20.395Z,99829.94
2023-05-06T17:58:47.836Z,99834.44
2023-05-06T18:01:15.590Z,99834.50
2023-05-06T18:03:43.963Z,99830.34
2023-05-06T18:06:12.595Z,99835.81
2023-05-06T18:08:39.990Z,99842.13
2023-05-06T18:11:07.804Z,99836.88
2023-05-06T18:13:36.338Z,99857.94
2023-05-06T18:16:04.445Z,99850.53
2023-05-06T18:18:32.304Z,99855.41
2023-05-06T18:20:59.784Z,99864.81
2023-05-06T18:23:28.144Z,99865.50
2023-05-06T18:25:55.967Z,99864.34
2023-05-06T18:28:23.333Z,99868.91
2023-05-06T18:30:50.738Z,99866.34
2023-05-06T18:33:20.162Z,99865.28
2023-05-06T18:35:47.700Z,99867.38
2023-05-06T18:38:15.650Z,99868.91
2023-05-06T18:40:46.868Z,99861.75
2023-05-06T18:43:14.282Z,99867.53
2023-05-06T18:45:42.866Z,99866.34
2023-05-06T18:48:11.031Z,99871.31
2023-05-06T18:50:38.533Z,99873.88
2023-05-06T18:53:05.954Z,99873.03
2023-05-06T18:55:33.744Z,99874.41
2023-05-06T18:58:05.529Z,99880.09
2023-05-06T19:00:32.951Z,99871.94
2023-05-06T19:03:00.805Z,99876.47
2023-05-06T19:05:28.322Z,99879.87
2023-05-06T19:07:55.734Z,99885.91
2023-05-06T19:10:23.414Z,99874.28
2023-05-06T19:12:50.837Z,99878.63
2023-05-06T19:15:19.144Z,99880.13
2023-05-06T19:17:46.843Z,99884.38
2023-05-06T19:20:14.417Z,99883.03
2023-05-06T19:22:42.005Z,99891.25
2023-05-06T19:25:10.262Z,99895.97
2023-05-06T19:27:37.794Z,99897.09
2023-05-06T19:30:05.962Z,99890.78
2023-05-06T19:32:33.811Z,99906.12
2023-05-06T19:35:07.913Z,99902.00
2023-05-06T19:37:37.046Z,99914.44
2023-05-06T19:40:04.954Z,99936.62
2023-05-06T19:42:33.834Z,99928.81
2023-05-06T19:45:08.839Z,99930.44
2023-05-06T19:47:36.466Z,99934.06
2023-05-06T19:50:05.083Z,99940.81
2023-05-06T19:52:34.461Z,99945.66
2023-05-06T19:55:03.087Z,99946.84
2023-05-06T19:57:33.512Z,99950.19
2023-05-06T20:00:05.231Z,99945.22
2023-05-06T20:02:32.996Z,99941.88
2023-05-06T20:05:00.880Z,99943.41
2023-05-06T20:07:28.520Z,99944.25
2023-05-06T20:09:56.865Z,99928.41
2023-05-06T20:12:27.752Z,99931.03
2023-05-06T20:14:56.049Z,99925.31
2023-05-06T20:17:23.938Z,99916.69
2023-05-06T20:19:52.392Z,99912.53
2023-05-06T20:22:19.993Z,99910.91
2023-05-06T20:24:47.718Z,99906.78
2023-05-06T20:27:15.398Z,99896.16
2023-05-06T20:29:42.852Z,99887.66
2023-05-06T20:32:10.560Z,99882.88
2023-05-06T20:34:38.026Z,99874.47
2023-05-06T20:37:05.456Z,99870.19
2023-05-06T20:39:33.794Z,99866.00
2023-05-06T20:42:02.123Z,99864.97
2023-05-06T20:44:29.499Z,99861.50
2023-05-06T20:46:57.152Z,99862.44
2023-05-06T20:49:24.659Z,99866.47
2023-05-06T20:51:52.095Z,99862.53
2023-05-06T20:54:19.778Z,99861.13
2023-05-06T20:56:47.156Z,99868.31
2023-05-06T20:59:14.524Z,99859.84
2023-05-06T21:01:42.308Z,99857.22
2023-05-06T21:04:09.786Z,99863.97
2023-05-06T21:06:37.193Z,99869.09
2023-05-06T21:09:04.873Z,99864.06
2023-05-06T21:11:32.379Z,99871.72
2023-05-06T21:13:59.828Z,99865.13
2023-05-06T21:16:27.704Z,99866.63
2023-05-06T21:18:55.139Z,99876.12
2023-05-06T21:21:24.326Z,99875.41
2023-05-06T21:23:51.979Z,99887.50
2023-05-06T21:26:19.384Z,99886.87
2023-05-06T21:28:51.206Z,99885.19
2023-05-06T21:31:19.708Z,99888.13
2023-05-06T21:33:47.589Z,99888.38
2023-05-06T21:36:14.986Z,99895.78
2023-05-06T21:38:42.690Z,99895.59
2023-05-06T21:41:10.154Z,99902.28
2023-05-06T21:43:37.585Z,99912.47
2023-05-06T21:46:05.406Z,99911.00
2023-05-06T21:48:32.811Z,99930.38
2023-05-06T21:51:03.631Z,99944.75
2023-05-06T21:53:31.331Z,99933.88
2023-05-06T21:55:58.674Z,99932.91
2023-05-06T21:58:26.074Z,99922.84
2023-05-06T22:00:53.769Z,99931.16
2023-05-06T22:03:21.609Z,99918.72
2023-05-06T22:05:49.151Z,99924.94
2023-05-06T22:08:17.080Z,99915.50
2023-05-06T22:10:44.835Z,99911.91
2023-05-06T22:13:12.302Z,99913.22
2023-05-06T22:15:39.722Z,99901.37
2023-05-06T22:18:08.683Z,99903.81
2023-05-06T22:20:38.755Z,99909.87
2023-05-06T22:23:06.126Z,99914.53
2023-05-06T22:25:33.819Z,99905.66
2023-05-06T22:28:01.186Z,99901.97
2023-05-06T22:30:28.625Z,99897.28
2023-05-06T22:32:56.441Z,99891.72
2023-05-06T22:35:23.973Z,99891.25
2023-05-06T22:37:51.468Z,99890.62
2023-05-06T22:40:19.185Z,99892.47
2023-05-06T22:42:48.218Z,99894.97
2023-05-06T22:45:15.683Z,99886.34
2023-05-06T22:47:43.388Z,99896.97
2023-05-06T22:50:11.516Z,99903.13
2023-05-06T22:52:38.932Z,99902.87
2023-05-06T22:55:09.641Z,99899.12
2023-05-06T22:57:37.412Z,99899.06
2023-05-06T23:00:06.693Z,99899.00
2023-05-06T23:02:34.699Z,99892.97
2023-05-06T23:05:02.071Z,99897.72
2023-05-06T23:07:29.454Z,99896.81
2023-05-06T23:09:59.470Z,99902.28
2023-05-06T23:12:27.974Z,99907.25
2023-05-06T23:14:55.382Z,99901.87
2023-05-06T23:17:23.131Z,99904.00
2023-05-06T23:19:50.659Z,99904.13
2023-05-06T23:22:18.108Z,99901.84
2023-05-06T23:24:45.970Z,99903.59
2023-05-06T23:27:13.380Z,99895.19
2023-05-06T23:29:41.248Z,99894.22
2023-05-06T23:32:09.128Z,99886.31
2023-05-06T23:34:36.498Z,99880.75
2023-05-06T23:37:03.859Z,99885.38
2023-05-06T23:39:31.581Z,99885.50
2023-05-06T23:42:00.857Z,99878.09
2023-05-06T23:44:28.408Z,99882.75
2023-05-06T23:46:56.218Z,99878.34
2023-05-06T23:49:23.771Z,99884.63
2023-05-06T23:51:51.140Z,99881.59
2023-05-06T23:54:18.830Z,99876.00
2023-05-06T23:56:46.178Z,99885.81
2023-05-06T23:59:13.701Z,99883.03
